createdAt,value
2019-01-24T05:04:48.714Z,-4.91
2019-01-24T05:07:19.249Z,-4.88
2019-01-24T05:09:49.807Z,-4.86
2019-01-24T05:12:20.398Z,-4.88
2019-01-24T05:14:50.978Z,-4.78
2019-01-24T05:17:25.723Z,-4.78
2019-01-24T05:19:56.296Z,-4.84
2019-01-24T05:22:26.804Z,-4.80
2019-01-24T05:24:57.428Z,-4.72
2019-01-24T05:27:28.088Z,-4.71
2019-01-24T05:29:58.714Z,-4.65
2019-01-24T05:32:29.318Z,-4.73
2019-01-24T05:34:59.926Z,-4.85
2019-01-24T05:37:30.468Z,-4.79
2019-01-24T05:40:01.041Z,-4.83
2019-01-24T05:42:31.635Z,-4.79
2019-01-24T05:45:02.244Z,-4.77
2019-01-24T05:47:32.822Z,-4.80
2019-01-24T05:50:03.401Z,-4.74
2019-01-24T05:52:33.971Z,-4.83
2019-01-24T05:55:05.181Z,-4.74
2019-01-24T05:57:35.754Z,-4.76
2019-01-24T06:00:09.916Z,-4.58
2019-01-24T06:02:40.527Z,-4.63
2019-01-24T06:05:12.282Z,-4.67
2019-01-24T06:07:42.902Z,-4.62
2019-01-24T06:10:15.274Z,-4.61
2019-01-24T06:12:45.851Z,-4.56
2019-01-24T06:15:17.129Z,-4.62
2019-01-24T06:17:47.942Z,-4.47
2019-01-24T06:20:18.464Z,-4.49
2019-01-24T06:22:49.066Z,-4.52
2019-01-24T06:25:19.700Z,-4.68
2019-01-24T06:27:50.280Z,-4.66
2019-01-24T06:30:21.549Z,-4.54
2019-01-24T06:32:52.162Z,-4.59
2019-01-24T06:35:22.723Z,-4.54
2019-01-24T06:37:53.650Z,-4.48
2019-01-24T06:40:24.239Z,-4.58
2019-01-24T06:42:54.881Z,-4.63
2019-01-24T06:45:25.986Z,-4.58
2019-01-24T06:47:56.563Z,-4.51
2019-01-24T06:50:27.130Z,-4.42
2019-01-24T06:52:57.764Z,-4.44
2019-01-24T06:55:30.032Z,-4.39
2019-01-24T06:58:00.608Z,-4.45
2019-01-24T07:00:31.251Z,-4.49
2019-01-24T07:03:01.831Z,-4.52
2019-01-24T07:05:32.380Z,-4.55
2019-01-24T07:08:03.074Z,-4.51
2019-01-24T07:10:33.671Z,-4.47
2019-01-24T07:13:04.283Z,-4.47
2019-01-24T07:15:34.887Z,-4.38
2019-01-24T07:18:05.540Z,-4.54
2019-01-24T07:20:36.086Z,-4.45
2019-01-24T07:23:06.759Z,-4.41
2019-01-24T07:25:37.411Z,-4.30
2019-01-24T07:28:07.983Z,-4.12
2019-01-24T07:30:38.649Z,-4.05
2019-01-24T07:33:09.226Z,-4.30
2019-01-24T07:35:39.753Z,-4.17
2019-01-24T07:38:10.421Z,-3.85
2019-01-24T07:40:40.996Z,-4.02
2019-01-24T07:43:11.567Z,-3.87
2019-01-24T07:45:43.180Z,-3.82
2019-01-24T07:48:13.780Z,-3.84
2019-01-24T07:50:44.413Z,-3.71
2019-01-24T07:53:15.004Z,-3.79
2019-01-24T07:55:45.667Z,-3.91
2019-01-24T07:58:16.285Z,-3.86
2019-01-24T08:00:47.018Z,-3.86
2019-01-24T08:03:17.626Z,-3.90
2019-01-24T08:05:48.177Z,-3.83
2019-01-24T08:08:18.804Z,-3.85
2019-01-24T08:10:49.347Z,-3.87
2019-01-24T08:13:19.902Z,-3.78
2019-01-24T08:15:50.703Z,-3.89
2019-01-24T08:18:21.481Z,-3.83
2019-01-24T08:20:51.993Z,-3.80
2019-01-24T08:23:22.552Z,-3.74
2019-01-24T08:25:53.005Z,-3.68
2019-01-24T08:28:23.612Z,-3.64
2019-01-24T08:30:54.249Z,-3.61
2019-01-24T08:33:24.817Z,-3.61
2019-01-24T08:35:55.353Z,-3.54
2019-01-24T08:38:25.952Z,-3.64
2019-01-24T08:40:56.485Z,-3.44
2019-01-24T08:43:27.189Z,-3.51
2019-01-24T08:45:57.833Z,-3.48
2019-01-24T08:48:28.548Z,-3.60
2019-01-24T08:50:59.102Z,-3.54
2019-01-24T08:53:29.838Z,-3.45
2019-01-24T08:56:00.403Z,-3.35
2019-01-24T08:58:30.926Z,-3.45
2019-01-24T09:01:01.662Z,-3.34
2019-01-24T09:03:32.263Z,-3.33
2019-01-24T09:06:03.537Z,-3.23
2019-01-24T09:08:34.222Z,-3.36
2019-01-24T09:11:04.774Z,-3.41
2019-01-24T09:13:35.361Z,-3.39
2019-01-24T09:16:06.170Z,-3.39
2019-01-24T09:18:36.698Z,-3.34
2019-01-24T09:21:07.716Z,-3.38
2019-01-24T09:23:38.334Z,-3.37
2019-01-24T09:26:08.912Z,-3.39
2019-01-24T09:28:39.465Z,-3.32
2019-01-24T09:31:10.135Z,-3.45
2019-01-24T09:33:40.638Z,-3.20
2019-01-24T09:36:11.243Z,-3.25
2019-01-24T10:05:55.358Z,-2.94
2019-01-24T10:08:25.964Z,-3.01
2019-01-24T10:10:56.591Z,-3.28
2019-01-24T10:13:27.264Z,-3.26
2019-01-24T10:15:58.090Z,-3.33
2019-01-24T10:18:28.630Z,-3.20
2019-01-24T10:20:59.310Z,-2.97
2019-01-24T10:23:29.983Z,-2.95
2019-01-24T10:26:01.104Z,-3.19
2019-01-24T10:28:31.810Z,-3.24
2019-01-24T10:31:02.366Z,-3.29
2019-01-24T10:33:32.907Z,-3.00
2019-01-24T10:36:03.500Z,-3.13
2019-01-24T10:38:34.106Z,-3.13
2019-01-24T10:41:04.661Z,-3.05
2019-01-24T10:43:35.256Z,-3.07
2019-01-24T10:46:05.904Z,-3.00
2019-01-24T10:48:36.462Z,-3.04
2019-01-24T10:51:07.050Z,-3.11
2019-01-24T10:53:37.622Z,-2.97
2019-01-24T10:56:08.435Z,-2.99
2019-01-24T10:58:39.001Z,-2.95
2019-01-24T11:01:09.636Z,-2.85
2019-01-24T11:03:40.172Z,-2.84
2019-01-24T11:06:10.808Z,-2.71
2019-01-24T11:08:41.352Z,-2.90
2019-01-24T11:11:11.859Z,-2.96
2019-01-24T11:13:42.479Z,-3.07
2019-01-24T11:16:12.993Z,-2.93
2019-01-24T11:18:43.550Z,-2.85
2019-01-24T11:21:14.113Z,-2.73
2019-01-24T11:23:44.713Z,-2.63
2019-01-24T11:26:15.230Z,-2.82
2019-01-24T11:28:45.799Z,-2.74
2019-01-24T11:31:16.341Z,-2.85
2019-01-24T11:33:46.828Z,-2.76
2019-01-24T11:36:17.442Z,-2.94
2019-01-24T11:38:47.938Z,-2.96
2019-01-24T11:41:18.541Z,-2.97
2019-01-24T11:43:49.145Z,-2.96
2019-01-24T11:46:19.646Z,-3.09
2019-01-24T11:48:50.132Z,-2.95
2019-01-24T11:51:20.664Z,-3.06
2019-01-24T11:53:53.172Z,-2.94
2019-01-24T11:56:23.670Z,-2.90
2019-01-24T11:58:54.169Z,-2.88
2019-01-24T12:01:24.795Z,-2.86
2019-01-24T12:03:55.399Z,-2.98
2019-01-24T12:06:25.961Z,-2.85
2019-01-24T12:08:56.508Z,-2.97
2019-01-24T12:11:27.077Z,-2.88
2019-01-24T12:13:57.595Z,-2.82
2019-01-24T12:16:28.255Z,-2.75
2019-01-24T12:18:58.814Z,-2.75
2019-01-24T12:21:29.398Z,-2.45
2019-01-24T12:23:59.965Z,-2.49
2019-01-24T12:26:30.587Z,-2.55
2019-01-24T12:29:01.095Z,-2.43
2019-01-24T12:31:31.711Z,-2.42
2019-01-24T12:34:02.343Z,-2.38
2019-01-24T12:36:32.868Z,-2.34
2019-01-24T12:39:04.767Z,-2.30
2019-01-24T12:41:35.333Z,-2.69
2019-01-24T12:44:06.247Z,-2.54
2019-01-24T12:46:36.898Z,-2.65
2019-01-24T12:49:07.535Z,-2.50
2019-01-24T12:51:38.683Z,-2.43
2019-01-24T12:54:09.354Z,-2.33
2019-01-24T12:56:39.924Z,-2.26
2019-01-24T12:59:10.520Z,-2.54
2019-01-24T13:01:41.061Z,-2.50
2019-01-24T13:04:11.615Z,-2.30
2019-01-24T13:06:42.145Z,-2.14
2019-01-24T13:09:12.729Z,-2.17
2019-01-24T13:11:43.273Z,-2.07
2019-01-24T13:14:13.822Z,-1.97
2019-01-24T13:16:44.336Z,-2.02
2019-01-24T13:19:14.867Z,-2.06
2019-01-24T13:21:45.411Z,-2.05
2019-01-24T13:24:15.931Z,-2.12
2019-01-24T13:26:46.484Z,-2.15
2019-01-24T13:29:17.141Z,-2.09
2019-01-24T13:31:47.627Z,-1.96
2019-01-24T13:34:18.231Z,-1.93
2019-01-24T13:36:48.788Z,-1.97
2019-01-24T13:39:19.371Z,-1.95
2019-01-24T13:41:53.012Z,-1.93
2019-01-24T13:44:23.611Z,-2.06
2019-01-24T13:46:54.155Z,-2.01
2019-01-24T13:49:24.805Z,-2.07
2019-01-24T13:51:55.507Z,-1.91
2019-01-24T13:54:26.075Z,-1.88
2019-01-24T13:56:58.341Z,-2.07
2019-01-24T13:59:29.037Z,-2.21
2019-01-24T14:01:59.665Z,-2.12
2019-01-24T14:04:36.888Z,-2.22
2019-01-24T14:07:07.419Z,-2.06
2019-01-24T14:09:37.935Z,-2.19
2019-01-24T14:12:08.468Z,-2.12
2019-01-24T14:14:39.021Z,-2.07
2019-01-24T14:17:09.562Z,-2.20
2019-01-24T14:19:40.095Z,-2.20
2019-01-24T14:22:10.611Z,-2.20
2019-01-24T14:24:41.162Z,-2.47
2019-01-24T14:27:11.742Z,-2.39
2019-01-24T14:29:42.292Z,-2.30
2019-01-24T14:32:12.795Z,-2.30
2019-01-24T14:34:43.390Z,-2.34
2019-01-24T14:37:14.449Z,-2.18
2019-01-24T14:39:45.072Z,-2.21
2019-01-24T14:42:15.605Z,-2.29
2019-01-24T14:44:46.153Z,-2.33
2019-01-24T14:47:16.723Z,-2.33
2019-01-24T14:49:47.337Z,-2.40
2019-01-24T14:52:17.876Z,-2.41
2019-01-24T14:54:48.461Z,-2.47
2019-01-24T14:57:18.986Z,-2.46
2019-01-24T14:59:49.559Z,-2.39
2019-01-24T15:02:20.056Z,-2.52
2019-01-24T15:04:50.584Z,-2.54
2019-01-24T15:07:21.167Z,-2.49
2019-01-24T15:09:51.696Z,-2.49
2019-01-24T15:12:22.259Z,-2.46
2019-01-24T15:14:52.784Z,-2.44
2019-01-24T15:17:23.416Z,-2.54
2019-01-24T15:19:54.003Z,-2.61
2019-01-24T15:22:24.540Z,-2.77
2019-01-24T15:24:55.041Z,-2.75
2019-01-24T15:27:25.681Z,-2.74
2019-01-24T15:29:56.224Z,-2.74
2019-01-24T15:32:26.789Z,-2.79
2019-01-24T15:34:57.341Z,-2.84
2019-01-24T15:37:27.916Z,-2.90
2019-01-24T15:39:58.491Z,-2.83
2019-01-24T15:42:29.125Z,-2.70
2019-01-24T15:44:59.662Z,-2.73
2019-01-24T15:47:30.244Z,-2.80
2019-01-24T15:50:00.847Z,-2.62
2019-01-24T15:52:34.089Z,-2.69
2019-01-24T15:55:04.061Z,-2.75
2019-01-24T15:57:40.680Z,-2.72
2019-01-24T16:00:18.171Z,-2.68
2019-01-24T16:02:48.801Z,-2.66
2019-01-24T16:05:19.474Z,-2.60
2019-01-24T16:07:50.179Z,-2.59
2019-01-24T16:10:24.531Z,-2.67
2019-01-24T16:12:55.457Z,-2.66
2019-01-24T16:15:37.960Z,-2.65
2019-01-24T16:18:15.351Z,-2.75
2019-01-24T16:20:46.490Z,-2.73
2019-01-24T16:23:17.038Z,-2.77
2019-01-24T16:25:51.068Z,-2.78
2019-01-24T16:28:24.768Z,-2.77
2019-01-24T16:30:56.647Z,-2.77
2019-01-24T16:33:29.250Z,-2.81
2019-01-24T16:36:00.033Z,-2.76
2019-01-24T16:38:31.610Z,-2.78
2019-01-24T16:41:04.474Z,-2.84
2019-01-24T16:43:35.554Z,-2.84
2019-01-24T16:46:08.065Z,-2.70
2019-01-24T16:48:39.823Z,-2.70
2019-01-24T16:51:10.972Z,-2.72
2019-01-24T16:53:41.906Z,-2.71
2019-01-24T16:56:12.595Z,-2.73
2019-01-24T16:58:43.227Z,-2.66
2019-01-24T17:01:23.102Z,-2.71
2019-01-24T17:03:53.821Z,-2.87
2019-01-24T17:06:24.757Z,-2.96
2019-01-24T17:08:56.615Z,-2.98
2019-01-24T17:11:27.246Z,-2.85
2019-01-24T17:13:58.061Z,-2.80
2019-01-24T17:16:28.766Z,-2.70
2019-01-24T17:19:00.554Z,-2.77
2019-01-24T17:21:31.605Z,-2.74
2019-01-24T17:24:06.269Z,-2.66
2019-01-24T17:26:36.917Z,-2.73
2019-01-24T17:29:07.970Z,-2.68
2019-01-24T17:31:42.951Z,-2.64
2019-01-24T17:34:14.003Z,-2.61
2019-01-24T17:36:44.748Z,-2.60
2019-01-24T17:39:15.362Z,-2.48
2019-01-24T17:41:46.880Z,-2.74
2019-01-24T17:44:17.589Z,-2.62
2019-01-24T17:46:48.502Z,-2.60
2019-01-24T17:49:19.092Z,-2.73
2019-01-24T17:51:51.240Z,-2.76
2019-01-24T17:54:24.412Z,-2.72
2019-01-24T17:57:01.357Z,-2.73
2019-01-24T17:59:32.163Z,-2.76
2019-01-24T18:02:03.702Z,-2.73
2019-01-24T18:04:34.830Z,-2.65
2019-01-24T18:10:21.772Z,-2.63
2019-01-24T18:12:54.322Z,-2.65
2019-01-24T18:15:31.302Z,-2.79
2019-01-24T18:18:04.598Z,-2.76
2019-01-24T18:20:35.813Z,-2.62
2019-01-24T18:23:08.377Z,-2.60
2019-01-24T18:25:58.640Z,-2.64
2019-01-24T18:28:29.475Z,-2.74
2019-01-24T18:33:54.592Z,-2.66
2019-01-24T18:44:26.994Z,-2.80
2019-01-24T18:46:58.699Z,-2.72
2019-01-24T18:49:30.177Z,-2.81
2019-01-24T18:52:06.198Z,-2.78
2019-01-24T18:54:37.940Z,-2.89
2019-01-24T18:57:21.807Z,-2.81
2019-01-24T19:05:13.568Z,-2.76
2019-01-24T19:07:45.126Z,-2.85
2019-01-24T19:10:19.989Z,-2.66
2019-01-24T19:12:52.898Z,-2.68
2019-01-24T19:15:25.990Z,-2.69
2019-01-24T19:18:00.015Z,-2.65
2019-01-24T19:20:31.737Z,-2.51
2019-01-24T19:23:05.576Z,-2.51
2019-01-24T19:25:39.091Z,-2.49
2019-01-24T19:28:13.839Z,-2.52
2019-01-24T19:30:46.716Z,-2.57
2019-01-24T19:33:18.569Z,-2.65
2019-01-24T19:35:50.606Z,-2.71
2019-01-24T19:38:52.881Z,-2.66
2019-01-24T19:41:37.099Z,-2.70
2019-01-24T19:44:08.271Z,-2.67
2019-01-24T19:46:42.001Z,-2.58
2019-01-24T19:49:15.948Z,-2.53
2019-01-24T19:51:48.216Z,-2.60
2019-01-24T19:54:19.024Z,-2.65
2019-01-24T19:56:52.371Z,-2.62
2019-01-24T19:59:23.108Z,-2.62
2019-01-24T20:01:54.302Z,-2.61
2019-01-24T20:04:30.183Z,-2.49
2019-01-24T20:07:00.812Z,-2.58
2019-01-24T20:09:32.790Z,-2.61
2019-01-24T20:12:06.563Z,-2.66
2019-01-24T20:14:38.343Z,-2.63
2019-01-24T20:17:26.394Z,-2.67
2019-01-24T20:19:59.667Z,-2.65
2019-01-24T20:22:55.975Z,-2.62
2019-01-24T20:25:30.135Z,-2.61
2019-01-24T20:28:02.807Z,-2.66
2019-01-24T20:36:19.987Z,-2.74
2019-01-24T20:41:53.440Z,-2.73
2019-01-24T20:44:26.775Z,-2.75
2019-01-24T20:47:06.433Z,-2.75
2019-01-24T20:49:39.867Z,-2.76
2019-01-24T20:52:15.969Z,-2.91
2019-01-24T20:54:50.054Z,-3.00
2019-01-24T20:57:23.364Z,-2.89
2019-01-24T21:00:13.671Z,-2.86
2019-01-24T21:02:50.378Z,-2.85
2019-01-24T21:05:22.491Z,-2.80
2019-01-24T21:07:57.748Z,-2.78
2019-01-24T21:10:29.448Z,-2.93
2019-01-24T21:13:01.219Z,-2.82
2019-01-24T21:15:33.538Z,-2.82
2019-01-24T21:18:04.963Z,-2.84
2019-01-24T21:20:35.528Z,-2.87
2019-01-24T21:23:06.528Z,-2.85
2019-01-24T21:25:37.053Z,-2.84
2019-01-24T21:28:07.773Z,-2.78
2019-01-24T21:30:38.898Z,-2.70
2019-01-24T21:33:09.848Z,-2.73
2019-01-24T21:35:40.397Z,-2.79
2019-01-24T21:38:11.350Z,-2.82
2019-01-24T21:40:41.906Z,-2.84
2019-01-24T21:43:12.546Z,-2.81
2019-01-24T21:45:43.068Z,-2.74
2019-01-24T21:48:13.591Z,-2.76
2019-01-24T21:50:44.180Z,-2.75
2019-01-24T21:53:14.759Z,-2.74
2019-01-24T21:55:45.404Z,-2.82
2019-01-24T21:58:15.994Z,-2.73
2019-01-24T22:00:46.720Z,-2.71
2019-01-24T22:03:17.340Z,-2.86
2019-01-24T22:05:47.955Z,-2.86
2019-01-24T22:08:18.622Z,-2.82
2019-01-24T22:10:49.214Z,-2.85
2019-01-24T22:13:19.808Z,-2.82
2019-01-24T22:15:50.406Z,-2.68
2019-01-24T22:18:20.988Z,-2.67
2019-01-24T22:20:55.582Z,-2.76
2019-01-24T22:23:23.876Z,-2.82
2019-01-24T22:25:54.494Z,-2.83
2019-01-24T22:28:25.055Z,-2.86
2019-01-24T22:30:57.834Z,-2.86
2019-01-24T22:33:28.451Z,-2.96
2019-01-24T22:35:58.990Z,-2.95
2019-01-24T22:38:29.577Z,-2.95
2019-01-24T22:41:00.143Z,-2.95
2019-01-24T22:43:30.723Z,-2.93
2019-01-24T22:46:01.327Z,-2.88
2019-01-24T22:48:31.915Z,-2.92
2019-01-24T22:51:02.484Z,-2.88
2019-01-24T22:53:34.592Z,-2.86
2019-01-24T22:56:05.304Z,-2.88
2019-01-24T22:58:35.830Z,-2.94
2019-01-24T23:01:45.751Z,-2.75
2019-01-24T23:04:25.424Z,-2.82
2019-01-24T23:06:56.050Z,-2.91
2019-01-24T23:09:26.542Z,-3.06
2019-01-24T23:11:57.066Z,-3.01
2019-01-24T23:14:27.686Z,-2.97
2019-01-24T23:16:58.260Z,-2.85
2019-01-24T23:19:28.849Z,-2.85
2019-01-24T23:21:59.456Z,-2.91
2019-01-24T23:24:30.000Z,-2.95
2019-01-24T23:27:00.543Z,-2.94
2019-01-24T23:29:31.114Z,-2.80
2019-01-24T23:32:01.652Z,-2.86
2019-01-24T23:34:32.199Z,-2.94
2019-01-24T23:37:02.780Z,-2.97
2019-01-24T23:39:33.362Z,-2.84
2019-01-24T23:42:03.947Z,-2.84
2019-01-24T23:44:34.530Z,-2.76
2019-01-24T23:47:05.112Z,-2.88
2019-01-24T23:49:35.623Z,-2.86
2019-01-24T23:52:06.277Z,-2.87
2019-01-24T23:54:36.816Z,-2.74
2019-01-24T23:57:07.359Z,-2.83
2019-01-24T23:59:37.943Z,-2.86
